createdAt,value
2018-09-08T00:01:17.611Z,9.20
2018-09-08T00:03:45.421Z,9.00
2018-09-08T00:06:13.223Z,9.00
2018-09-08T00:08:41.174Z,9.00
2018-09-08T00:11:08.923Z,9.10
2018-09-08T00:13:36.991Z,9.20
2018-09-08T00:16:10.222Z,9.10
2018-09-08T00:18:43.430Z,9.00
2018-09-08T00:21:16.674Z,8.90
2018-09-08T00:23:49.781Z,8.80
2018-09-08T00:26:22.846Z,8.70
2018-09-08T00:28:56.046Z,8.60
2018-09-08T00:31:24.148Z,8.70
2018-09-08T00:33:51.988Z,8.60
2018-09-08T00:36:19.675Z,8.60
2018-09-08T00:38:47.607Z,8.50
2018-09-08T00:41:15.721Z,8.50
2018-09-08T00:43:43.501Z,8.60
2018-09-08T00:46:11.438Z,8.60
2018-09-08T00:48:39.340Z,8.60
2018-09-08T00:51:07.125Z,8.70
2018-09-08T00:53:34.862Z,8.70
2018-09-08T00:56:02.802Z,8.70
2018-09-08T00:58:30.530Z,8.60
2018-09-08T01:00:58.457Z,8.60
2018-09-08T01:03:26.320Z,8.60
2018-09-08T01:05:54.237Z,8.60
2018-09-08T01:08:21.954Z,8.60
2018-09-08T01:10:49.807Z,8.70
2018-09-08T01:13:17.531Z,8.70
2018-09-08T01:15:45.531Z,8.80
2018-09-08T01:18:13.263Z,8.80
2018-09-08T01:20:41.155Z,8.80
2018-09-08T01:23:09.863Z,8.80
2018-09-08T01:25:38.112Z,8.80
2018-09-08T01:28:06.616Z,8.70
2018-09-08T01:30:35.563Z,8.60
2018-09-08T01:33:03.675Z,8.60
2018-09-08T01:35:31.469Z,8.60
2018-09-08T01:37:59.217Z,8.50
2018-09-08T01:40:26.978Z,8.60
2018-09-08T01:42:54.759Z,8.60
2018-09-08T01:45:22.599Z,8.60
2018-09-08T01:47:50.456Z,8.60
2018-09-08T01:50:18.224Z,8.60
2018-09-08T01:52:45.980Z,8.60
2018-09-08T01:55:13.750Z,8.70
2018-09-08T01:57:41.517Z,8.70
2018-09-08T02:00:10.081Z,8.60
2018-09-08T02:02:38.007Z,8.60
2018-09-08T02:05:06.093Z,8.70
2018-09-08T02:07:33.802Z,8.60
2018-09-08T02:10:01.651Z,8.60
2018-09-08T02:12:29.366Z,8.50
2018-09-08T02:14:57.200Z,8.50
2018-09-08T02:17:24.926Z,8.50
2018-09-08T02:19:52.928Z,8.50
2018-09-08T02:22:20.730Z,8.50
2018-09-08T02:24:48.835Z,8.60
2018-09-08T02:27:16.633Z,8.50
2018-09-08T02:29:44.390Z,8.50
2018-09-08T02:32:12.254Z,8.50
2018-09-08T02:34:39.984Z,8.40
2018-09-08T02:37:07.791Z,8.40
2018-09-08T02:39:35.550Z,8.40
2018-09-08T02:42:03.395Z,8.40
2018-09-08T02:44:31.152Z,8.40
2018-09-08T02:46:59.062Z,8.50
2018-09-08T02:49:31.226Z,8.50
2018-09-08T02:51:58.441Z,8.50
2018-09-08T02:54:25.799Z,8.50
2018-09-08T02:56:52.958Z,8.50
2018-09-08T02:59:20.086Z,8.60
2018-09-08T03:01:47.270Z,8.50
2018-09-08T03:04:14.602Z,8.60
2018-09-08T03:06:41.839Z,8.70
2018-09-08T03:09:09.011Z,8.60
2018-09-08T03:11:36.249Z,8.70
2018-09-08T03:14:03.512Z,8.60
2018-09-08T03:16:30.677Z,8.70
2018-09-08T03:18:58.073Z,8.70
2018-09-08T03:21:25.274Z,8.80
2018-09-08T03:23:52.406Z,8.70
2018-09-08T03:26:19.642Z,8.70
2018-09-08T03:28:46.828Z,8.80
2018-09-08T03:31:14.003Z,8.80
2018-09-08T03:33:41.132Z,8.80
2018-09-08T03:36:08.387Z,8.80
2018-09-08T03:38:35.709Z,8.90
2018-09-08T03:41:02.902Z,8.80
2018-09-08T03:43:30.219Z,8.90
2018-09-08T03:45:57.347Z,8.90
2018-09-08T03:48:24.547Z,8.90
2018-09-08T03:50:51.683Z,9.00
2018-09-08T03:53:19.050Z,9.10
2018-09-08T03:55:46.405Z,9.10
2018-09-08T03:58:13.589Z,9.10
2018-09-08T04:00:40.906Z,9.10
2018-09-08T04:03:08.878Z,9.00
2018-09-08T04:05:36.657Z,9.00
2018-09-08T04:08:04.528Z,8.90
2018-09-08T04:10:32.370Z,8.90
2018-09-08T04:13:00.237Z,8.80
2018-09-08T04:15:28.182Z,8.80
2018-09-08T04:17:56.116Z,8.70
2018-09-08T04:20:24.050Z,8.70
2018-09-08T04:22:52.033Z,8.60
2018-09-08T04:25:19.831Z,8.60
2018-09-08T04:27:47.652Z,8.50
2018-09-08T04:30:15.555Z,8.60
2018-09-08T04:32:43.372Z,8.50
2018-09-08T04:35:11.337Z,8.50
2018-09-08T04:37:39.316Z,8.50
2018-09-08T04:40:07.133Z,8.40
2018-09-08T04:42:35.226Z,8.40
2018-09-08T04:45:03.164Z,8.40
2018-09-08T04:47:30.915Z,8.40
2018-09-08T04:49:58.673Z,8.40
2018-09-08T04:52:26.427Z,8.50
2018-09-08T04:54:54.262Z,8.50
2018-09-08T04:57:22.073Z,8.50
2018-09-08T04:59:49.869Z,8.50
2018-09-08T05:02:17.864Z,8.60
2018-09-08T05:04:45.933Z,8.70
2018-09-08T05:07:13.799Z,8.70
2018-09-08T05:09:41.655Z,8.70
2018-09-08T05:12:09.482Z,8.70
2018-09-08T05:14:37.501Z,8.70
2018-09-08T05:17:05.480Z,8.70
2018-09-08T05:19:33.295Z,8.70
2018-09-08T05:22:01.210Z,8.70
2018-09-08T05:24:29.226Z,8.70
2018-09-08T05:26:57.431Z,8.70
2018-09-08T05:29:25.267Z,8.80
2018-09-08T05:31:53.069Z,8.80
2018-09-08T05:34:21.176Z,8.80
2018-09-08T05:36:49.314Z,8.80
2018-09-08T05:39:17.299Z,8.80
2018-09-08T05:41:45.326Z,8.90
2018-09-08T05:44:13.318Z,8.90
2018-09-08T05:46:41.081Z,8.90
2018-09-08T05:49:09.002Z,8.90
2018-09-08T05:51:36.807Z,9.00
2018-09-08T05:54:04.654Z,9.10
2018-09-08T05:56:32.743Z,9.20
2018-09-08T05:59:00.971Z,9.30
2018-09-08T06:01:28.693Z,9.40
2018-09-08T06:03:56.631Z,9.50
2018-09-08T06:06:24.468Z,9.60
2018-09-08T06:08:52.555Z,9.70
2018-09-08T06:11:20.411Z,9.90
2018-09-08T06:13:48.206Z,10.00
2018-09-08T06:16:16.002Z,10.00
2018-09-08T06:18:43.967Z,10.10
2018-09-08T06:21:11.873Z,10.30
2018-09-08T06:23:39.870Z,10.30
2018-09-08T06:26:07.876Z,10.40
2018-09-08T06:28:36.127Z,10.50
2018-09-08T06:31:04.444Z,10.50
2018-09-08T06:33:32.378Z,10.70
2018-09-08T06:36:00.357Z,10.80
2018-09-08T06:38:28.218Z,11.00
2018-09-08T06:40:56.215Z,11.10
2018-09-08T06:43:24.094Z,11.40
2018-09-08T06:45:51.911Z,11.50
2018-09-08T06:48:19.798Z,11.60
2018-09-08T06:50:47.868Z,11.60
2018-09-08T06:53:16.012Z,11.80
2018-09-08T06:55:44.090Z,11.90
2018-09-08T06:58:12.158Z,12.00
2018-09-08T07:00:40.316Z,12.10
2018-09-08T07:03:09.057Z,12.30
2018-09-08T07:05:37.129Z,12.40
2018-09-08T07:08:05.246Z,12.50
2018-09-08T07:10:33.612Z,12.60
2018-09-08T07:13:01.607Z,12.80
2018-09-08T07:15:30.870Z,12.90
2018-09-08T07:17:58.833Z,13.00
2018-09-08T07:20:26.996Z,13.10
2018-09-08T07:22:55.113Z,13.20
2018-09-08T07:25:23.035Z,13.30
2018-09-08T07:27:50.967Z,13.40
2018-09-08T07:30:19.077Z,13.50
2018-09-08T07:32:46.922Z,13.60
2018-09-08T07:35:14.925Z,13.70
2018-09-08T07:37:43.057Z,13.80
2018-09-08T07:40:10.959Z,13.90
2018-09-08T07:42:38.831Z,14.00
2018-09-08T07:45:06.896Z,14.10
2018-09-08T07:47:34.778Z,14.20
2018-09-08T07:50:03.002Z,14.40
2018-09-08T07:52:31.166Z,14.40
2018-09-08T07:54:59.133Z,14.60
2018-09-08T07:57:26.924Z,14.50
2018-09-08T07:59:55.004Z,14.50
2018-09-08T08:02:23.099Z,14.60
2018-09-08T08:04:51.089Z,14.60
2018-09-08T08:07:19.187Z,14.70
2018-09-08T08:09:47.124Z,14.80
2018-09-08T08:12:15.111Z,14.90
2018-09-08T08:14:43.430Z,15.00
2018-09-08T08:17:11.495Z,15.10
2018-09-08T08:19:39.416Z,15.10
2018-09-08T08:22:07.458Z,15.10
2018-09-08T08:24:35.359Z,15.10
2018-09-08T08:27:03.374Z,15.00
2018-09-08T08:29:31.527Z,15.10
2018-09-08T08:31:59.371Z,15.10
2018-09-08T08:34:27.448Z,14.90
2018-09-08T08:36:55.363Z,15.00
2018-09-08T08:39:23.218Z,15.20
2018-09-08T08:41:51.376Z,15.30
2018-09-08T08:44:19.346Z,15.40
2018-09-08T08:46:47.307Z,15.40
2018-09-08T08:49:15.452Z,15.50
2018-09-08T08:51:48.997Z,15.60
2018-09-08T08:54:19.009Z,15.70
2018-09-08T08:56:46.971Z,15.70
2018-09-08T08:59:15.097Z,15.70
2018-09-08T09:01:43.047Z,15.80
2018-09-08T09:04:11.784Z,15.80
2018-09-08T09:06:39.786Z,16.00
2018-09-08T09:09:09.033Z,16.20
2018-09-08T09:11:37.027Z,16.20
2018-09-08T09:14:05.157Z,16.30
2018-09-08T09:16:33.340Z,16.50
2018-09-08T09:19:06.991Z,16.70
2018-09-08T09:21:40.778Z,16.90
2018-09-08T09:24:17.594Z,17.10
2018-09-08T09:26:46.058Z,17.10
2018-09-08T09:30:57.232Z,17.30
2018-09-08T09:33:25.130Z,17.40
2018-09-08T09:35:53.282Z,17.10
2018-09-08T09:38:21.364Z,17.00
2018-09-08T09:40:49.438Z,17.00
2018-09-08T09:43:17.458Z,17.30
2018-09-08T09:45:45.509Z,17.10
2018-09-08T09:48:13.842Z,17.30
2018-09-08T09:50:41.622Z,17.50
2018-09-08T09:53:09.500Z,17.60
2018-09-08T09:55:37.348Z,17.60
2018-09-08T09:58:05.185Z,17.20
2018-09-08T10:00:38.672Z,17.40
2018-09-08T10:03:06.554Z,17.40
2018-09-08T10:05:35.189Z,17.00
2018-09-08T10:08:03.368Z,16.90
2018-09-08T10:10:31.497Z,16.60
2018-09-08T10:12:59.378Z,16.50
2018-09-08T10:15:27.173Z,16.40
2018-09-08T10:17:54.956Z,16.30
2018-09-08T10:20:23.604Z,16.30
2018-09-08T10:22:51.641Z,16.30
2018-09-08T10:25:20.161Z,16.40
2018-09-08T10:27:48.601Z,16.60
2018-09-08T10:30:17.044Z,16.70
2018-09-08T10:32:45.688Z,16.70
2018-09-08T10:35:13.890Z,17.00
2018-09-08T10:37:42.066Z,17.10
2018-09-08T10:40:10.981Z,17.30
2018-09-08T10:42:38.908Z,17.10
2018-09-08T10:45:06.704Z,17.30
2018-09-08T10:47:34.773Z,17.40
2018-09-08T10:50:02.705Z,17.50
2018-09-08T10:52:34.734Z,17.50
2018-09-08T10:55:02.714Z,17.50
2018-09-08T10:57:30.621Z,17.40
2018-09-08T10:59:59.278Z,17.40
2018-09-08T11:02:27.427Z,17.50
2018-09-08T11:04:55.077Z,17.70
2018-09-08T11:07:23.039Z,17.60
2018-09-08T11:09:51.052Z,18.00
2018-09-08T11:12:18.936Z,18.30
2018-09-08T11:14:46.884Z,18.50
2018-09-08T11:17:14.727Z,18.60
2018-09-08T11:19:42.703Z,18.50
2018-09-08T11:22:10.758Z,18.60
2018-09-08T11:24:38.711Z,18.50
2018-09-08T11:27:06.604Z,18.40
2018-09-08T11:29:34.511Z,18.60
2018-09-08T11:32:02.536Z,18.60
2018-09-08T11:34:30.562Z,18.20
2018-09-08T11:36:58.497Z,18.00
2018-09-08T11:39:26.478Z,18.30
2018-09-08T11:41:54.322Z,18.70
2018-09-08T11:44:22.190Z,18.90
2018-09-08T11:46:50.380Z,19.00
2018-09-08T11:49:18.349Z,19.00
2018-09-08T11:51:46.395Z,19.20
2018-09-08T11:54:14.283Z,19.30
2018-09-08T11:56:42.262Z,19.20
2018-09-08T11:59:10.350Z,19.20
2018-09-08T12:01:38.196Z,19.10
2018-09-08T12:04:06.611Z,19.20
2018-09-08T12:06:34.881Z,19.00
2018-09-08T12:09:02.884Z,18.70
2018-09-08T12:11:30.867Z,18.80
2018-09-08T12:13:59.133Z,18.60
2018-09-08T12:16:26.974Z,18.50
2018-09-08T12:18:54.905Z,18.50
2018-09-08T12:21:22.946Z,18.60
2018-09-08T12:23:50.832Z,18.80
2018-09-08T12:26:18.663Z,18.90
2018-09-08T12:28:46.445Z,19.10
2018-09-08T12:31:14.322Z,19.10
2018-09-08T12:33:42.409Z,19.10
2018-09-08T12:36:10.309Z,19.20
2018-09-08T12:38:38.325Z,19.60
2018-09-08T12:41:06.197Z,19.70
2018-09-08T12:43:34.144Z,19.70
2018-09-08T12:46:02.224Z,19.80
2018-09-08T12:48:30.228Z,20.00
2018-09-08T12:50:58.181Z,20.10
2018-09-08T12:53:26.493Z,20.00
2018-09-08T12:55:54.404Z,19.90
2018-09-08T12:58:22.600Z,19.60
2018-09-08T13:00:50.335Z,19.60
2018-09-08T13:03:18.132Z,19.80
2018-09-08T13:05:46.301Z,19.60
2018-09-08T13:08:14.238Z,19.70
2018-09-08T13:10:42.690Z,19.70
2018-09-08T13:13:10.534Z,19.50
2018-09-08T13:15:38.310Z,19.50
2018-09-08T13:18:06.249Z,19.60
2018-09-08T13:20:34.228Z,19.60
2018-09-08T13:23:02.127Z,19.70
2018-09-08T13:25:30.183Z,19.70
2018-09-08T13:27:58.217Z,19.90
2018-09-08T13:30:26.227Z,20.00
2018-09-08T13:32:54.210Z,20.10
2018-09-08T13:35:22.136Z,20.30
2018-09-08T13:37:49.967Z,20.20
2018-09-08T13:40:17.974Z,20.20
2018-09-08T13:42:45.915Z,20.00
2018-09-08T13:45:14.214Z,20.00
2018-09-08T13:47:41.999Z,20.10
2018-09-08T13:50:10.024Z,20.00
2018-09-08T13:52:37.972Z,20.20
2018-09-08T13:55:06.323Z,20.20
2018-09-08T13:57:34.329Z,20.30
2018-09-08T14:00:02.477Z,20.40
2018-09-08T14:02:30.672Z,20.40
2018-09-08T14:04:58.577Z,20.40
2018-09-08T14:07:26.420Z,20.60
2018-09-08T14:09:54.524Z,20.50
2018-09-08T14:12:22.498Z,20.40
2018-09-08T14:14:50.876Z,20.30
2018-09-08T14:17:18.992Z,20.40
2018-09-08T14:19:47.037Z,20.30
2018-09-08T14:22:15.242Z,20.40
2018-09-08T14:24:43.134Z,20.50
2018-09-08T14:27:11.375Z,20.60
2018-09-08T14:29:40.608Z,20.70
2018-09-08T14:32:08.636Z,20.90
2018-09-08T14:34:36.714Z,20.50
2018-09-08T14:37:04.809Z,20.40
2018-09-08T14:39:32.769Z,20.50
2018-09-08T14:42:00.725Z,20.70
2018-09-08T14:44:28.605Z,20.80
2018-09-08T14:46:56.381Z,20.90
2018-09-08T14:49:30.796Z,20.90
2018-09-08T14:51:58.767Z,20.90
2018-09-08T14:54:26.763Z,21.00
2018-09-08T14:56:54.756Z,21.00
2018-09-08T14:59:22.560Z,20.80
2018-09-08T15:01:50.619Z,20.90
2018-09-08T15:04:18.569Z,20.60
2018-09-08T15:06:46.486Z,20.40
2018-09-08T15:09:14.431Z,20.40
2018-09-08T15:11:42.692Z,20.30
2018-09-08T15:14:10.667Z,20.40
2018-09-08T15:16:38.734Z,20.40
2018-09-08T15:19:06.655Z,20.50
2018-09-08T15:21:34.604Z,20.40
2018-09-08T15:24:02.532Z,20.30
2018-09-08T15:26:30.433Z,20.30
2018-09-08T15:28:58.616Z,20.40
2018-09-08T15:31:26.503Z,20.40
2018-09-08T15:33:54.816Z,20.40
2018-09-08T15:36:22.837Z,20.30
2018-09-08T15:38:50.751Z,20.00
2018-09-08T15:41:18.559Z,19.90
2018-09-08T15:43:46.434Z,19.90
2018-09-08T15:46:14.374Z,20.10
2018-09-08T15:48:42.150Z,20.10
2018-09-08T15:51:09.965Z,20.20
2018-09-08T15:53:38.041Z,20.20
2018-09-08T15:56:06.029Z,20.10
2018-09-08T15:58:33.865Z,19.80
2018-09-08T16:01:01.666Z,19.70
2018-09-08T16:03:29.614Z,19.70
2018-09-08T16:05:57.509Z,19.70
2018-09-08T16:08:25.380Z,19.70
2018-09-08T16:10:54.120Z,19.60
2018-09-08T16:13:22.030Z,19.60
2018-09-08T16:15:49.918Z,19.70
2018-09-08T16:18:17.730Z,19.80
2018-09-08T16:20:45.848Z,19.90
2018-09-08T16:23:13.688Z,20.00
2018-09-08T16:25:41.452Z,20.20
2018-09-08T16:28:09.343Z,20.20
2018-09-08T16:30:37.202Z,20.30
2018-09-08T16:33:05.182Z,20.20
2018-09-08T16:35:33.029Z,20.20
2018-09-08T16:38:01.047Z,20.10
2018-09-08T16:40:29.478Z,20.00
2018-09-08T16:42:57.364Z,19.80
2018-09-08T16:45:25.504Z,19.80
2018-09-08T16:47:53.376Z,19.60
2018-09-08T16:50:21.361Z,19.60
2018-09-08T16:52:49.246Z,19.50
2018-09-08T16:55:17.072Z,19.50
2018-09-08T16:57:44.969Z,19.40
2018-09-08T17:00:12.788Z,19.30
2018-09-08T17:02:40.622Z,19.30
2018-09-08T17:05:09.068Z,19.20
2018-09-08T17:07:37.095Z,19.10
2018-09-08T17:10:05.087Z,19.10
2018-09-08T17:12:32.976Z,19.10
2018-09-08T17:15:00.723Z,19.00
2018-09-08T17:17:28.890Z,18.90
2018-09-08T17:19:56.690Z,18.90
2018-09-08T17:22:24.605Z,18.80
2018-09-08T17:24:52.548Z,18.90
2018-09-08T17:27:20.429Z,19.00
2018-09-08T17:29:48.325Z,19.00
2018-09-08T17:32:16.377Z,18.90
2018-09-08T17:34:44.175Z,18.80
2018-09-08T17:37:12.131Z,18.70
2018-09-08T17:39:40.202Z,18.70
2018-09-08T17:42:08.002Z,18.80
2018-09-08T17:44:35.979Z,18.70
2018-09-08T17:47:03.798Z,18.60
2018-09-08T17:49:32.000Z,18.50
2018-09-08T17:51:59.857Z,18.50
2018-09-08T17:54:27.718Z,18.50
2018-09-08T17:56:55.568Z,18.40
2018-09-08T17:59:23.349Z,18.30
2018-09-08T18:01:51.127Z,18.10
2018-09-08T18:04:19.145Z,18.00
2018-09-08T18:06:46.992Z,17.70
2018-09-08T18:09:14.826Z,17.60
2018-09-08T18:11:42.833Z,17.60
2018-09-08T18:14:10.819Z,17.50
2018-09-08T18:16:38.845Z,17.70
2018-09-08T18:19:06.883Z,17.80
2018-09-08T18:21:35.194Z,17.80
2018-09-08T18:24:03.019Z,17.80
2018-09-08T18:26:31.044Z,17.80
2018-09-08T18:28:59.035Z,17.80
2018-09-08T18:31:26.937Z,17.70
2018-09-08T18:33:55.013Z,17.50
2018-09-08T18:36:23.805Z,17.30
2018-09-08T18:38:52.079Z,17.10
2018-09-08T18:41:20.009Z,17.00
2018-09-08T18:43:47.844Z,17.00
2018-09-08T18:46:15.629Z,17.00
2018-09-08T18:48:43.562Z,17.10
2018-09-08T18:51:11.691Z,16.90
2018-09-08T18:53:40.640Z,16.80
2018-09-08T18:56:08.495Z,16.90
2018-09-08T18:58:36.383Z,16.90
2018-09-08T19:01:04.192Z,16.90
2018-09-08T19:03:32.269Z,16.80
2018-09-08T19:06:00.403Z,16.70
2018-09-08T19:08:33.530Z,16.70
2018-09-08T19:11:01.497Z,16.70
2018-09-08T19:13:29.685Z,16.60
2018-09-08T19:15:57.557Z,16.60
2018-09-08T19:18:25.453Z,16.40
2018-09-08T19:20:53.267Z,16.40
2018-09-08T19:23:21.069Z,16.40
2018-09-08T19:25:48.959Z,16.40
2018-09-08T19:28:16.771Z,16.30
2018-09-08T19:30:44.714Z,16.40
2018-09-08T19:33:12.524Z,16.30
2018-09-08T19:35:40.791Z,16.20
2018-09-08T19:38:08.864Z,16.20
2018-09-08T19:40:42.075Z,16.20
2018-09-08T19:43:10.492Z,16.10
2018-09-08T19:45:38.570Z,16.10
2018-09-08T19:48:08.298Z,16.10
2018-09-08T19:50:36.429Z,16.00
2018-09-08T19:53:09.804Z,15.90
2018-09-08T19:55:37.793Z,15.90
2018-09-08T19:58:11.364Z,15.90
2018-09-08T20:00:39.444Z,15.90
2018-09-08T20:03:07.588Z,15.90
2018-09-08T20:05:35.635Z,16.00
2018-09-08T20:08:03.542Z,15.90
2018-09-08T20:10:31.439Z,15.80
2018-09-08T20:12:59.369Z,15.60
2018-09-08T20:15:27.361Z,15.50
2018-09-08T20:17:55.326Z,15.40
2018-09-08T20:20:23.260Z,15.30
2018-09-08T20:22:51.195Z,15.30
2018-09-08T20:25:19.444Z,15.20
2018-09-08T20:27:47.300Z,15.20
2018-09-08T20:30:15.476Z,15.20
2018-09-08T20:32:43.362Z,15.20
2018-09-08T20:35:11.468Z,15.40
2018-09-08T20:37:39.648Z,15.40
2018-09-08T20:40:07.794Z,15.50
2018-09-08T20:42:35.708Z,15.50
2018-09-08T20:45:03.643Z,15.50
2018-09-08T20:47:31.723Z,15.50
2018-09-08T20:49:59.515Z,15.50
2018-09-08T20:52:27.572Z,15.50
2018-09-08T20:54:55.585Z,15.50
2018-09-08T20:57:23.496Z,15.50
2018-09-08T20:59:51.573Z,15.40
2018-09-08T21:02:19.392Z,15.30
2018-09-08T21:04:47.257Z,15.20
2018-09-08T21:07:15.081Z,15.20
2018-09-08T21:09:43.060Z,15.10
2018-09-08T21:12:10.864Z,15.20
2018-09-08T21:14:39.632Z,15.20
2018-09-08T21:17:07.982Z,15.20
2018-09-08T21:19:36.551Z,15.20
2018-09-08T21:22:04.932Z,15.10
2018-09-08T21:24:32.771Z,14.90
2018-09-08T21:27:00.676Z,14.80
2018-09-08T21:29:28.635Z,14.90
2018-09-08T21:31:56.479Z,15.00
2018-09-08T21:34:24.282Z,15.00
2018-09-08T21:36:52.283Z,15.00
2018-09-08T21:39:20.127Z,15.00
2018-09-08T21:41:48.111Z,14.80
2018-09-08T21:44:15.906Z,14.90
2018-09-08T21:46:44.032Z,14.90
2018-09-08T21:49:11.837Z,14.90
2018-09-08T21:51:39.767Z,14.80
2018-09-08T21:54:07.647Z,14.80
2018-09-08T21:56:35.457Z,14.80
2018-09-08T21:59:03.337Z,14.80
2018-09-08T22:01:31.168Z,14.70
2018-09-08T22:03:59.152Z,14.60
2018-09-08T22:06:27.186Z,14.60
2018-09-08T22:08:55.325Z,14.60
2018-09-08T22:11:23.313Z,14.70
2018-09-08T22:13:51.332Z,14.80
2018-09-08T22:16:19.271Z,14.70
2018-09-08T22:18:47.196Z,14.70
2018-09-08T22:21:15.016Z,14.60
2018-09-08T22:23:42.862Z,14.60
2018-09-08T22:26:10.717Z,14.40
2018-09-08T22:28:38.602Z,14.40
2018-09-08T22:31:06.541Z,14.40
2018-09-08T22:33:34.728Z,14.40
2018-09-08T22:36:02.588Z,14.40
2018-09-08T22:38:30.423Z,14.40
2018-09-08T22:40:58.302Z,14.30
2018-09-08T22:43:26.129Z,14.30
2018-09-08T22:45:54.012Z,14.20
2018-09-08T22:48:21.960Z,14.10
2018-09-08T22:50:49.716Z,14.10
2018-09-08T22:53:17.654Z,14.10
2018-09-08T22:55:45.431Z,14.30
2018-09-08T22:58:13.357Z,14.30
2018-09-08T23:00:41.140Z,14.20
2018-09-08T23:03:08.949Z,14.20
2018-09-08T23:05:36.830Z,14.20
2018-09-08T23:08:04.832Z,14.20
2018-09-08T23:10:32.699Z,14.30
2018-09-08T23:13:00.703Z,14.20
2018-09-08T23:15:28.718Z,14.30
2018-09-08T23:17:56.739Z,14.30
2018-09-08T23:20:24.672Z,14.30
2018-09-08T23:22:52.486Z,14.20
2018-09-08T23:25:20.505Z,14.20
2018-09-08T23:27:48.606Z,14.30
2018-09-08T23:30:16.420Z,14.30
2018-09-08T23:32:44.319Z,14.30
2018-09-08T23:35:12.210Z,14.40
2018-09-08T23:37:40.047Z,14.40
2018-09-08T23:40:07.883Z,14.40
2018-09-08T23:42:35.844Z,14.40
2018-09-08T23:45:03.633Z,14.40
2018-09-08T23:47:31.527Z,14.50
2018-09-08T23:49:59.370Z,14.40
2018-09-08T23:52:27.367Z,14.40
2018-09-08T23:54:55.384Z,14.40
2018-09-08T23:57:23.356Z,14.50
2018-09-08T23:59:51.248Z,14.60
